sensor_id;sensor_type;location;lat;lon;timestamp;temperature;humidity
17567;DHT22;8901;52.088;5.084;2022-08-11T00:00:20;21.70;99.90
17567;DHT22;8901;52.088;5.084;2022-08-11T00:02:50;21.70;99.90
17567;DHT22;8901;52.088;5.084;2022-08-11T00:05:19;21.70;99.90
17567;DHT22;8901;52.088;5.084;2022-08-11T00:07:50;21.60;99.90
17567;DHT22;8901;52.088;5.084;2022-08-11T00:10:18;21.50;99.90
17567;DHT22;8901;52.088;5.084;2022-08-11T00:12:51;21.60;99.90
17567;DHT22;8901;52.088;5.084;2022-08-11T00:15:18;21.50;99.90
17567;DHT22;8901;52.088;5.084;2022-08-11T00:17:46;21.50;99.90
17567;DHT22;8901;52.088;5.084;2022-08-11T00:20:14;21.50;99.90
17567;DHT22;8901;52.088;5.084;2022-08-11T00:22:44;21.40;99.90
17567;DHT22;8901;52.088;5.084;2022-08-11T00:25:15;21.50;99.90
17567;DHT22;8901;52.088;5.084;2022-08-11T00:27:43;21.40;99.90
17567;DHT22;8901;52.088;5.084;2022-08-11T00:30:11;21.40;99.90
17567;DHT22;8901;52.088;5.084;2022-08-11T00:32:40;21.50;99.90
17567;DHT22;8901;52.088;5.084;2022-08-11T00:35:10;21.40;99.90
17567;DHT22;8901;52.088;5.084;2022-08-11T00:37:38;21.50;99.90
17567;DHT22;8901;52.088;5.084;2022-08-11T00:40:13;21.40;99.90
17567;DHT22;8901;52.088;5.084;2022-08-11T00:43:06;21.40;99.90
17567;DHT22;8901;52.088;5.084;2022-08-11T00:45:41;21.40;99.90
17567;DHT22;8901;52.088;5.084;2022-08-11T00:48:14;21.40;99.90
17567;DHT22;8901;52.088;5.084;2022-08-11T00:50:56;21.40;99.90
17567;DHT22;8901;52.088;5.084;2022-08-11T00:53:33;21.30;99.90
17567;DHT22;8901;52.088;5.084;2022-08-11T00:56:28;21.30;99.90
17567;DHT22;8901;52.088;5.084;2022-08-11T00:59:25;21.40;99.90
17567;DHT22;8901;52.088;5.084;2022-08-11T01:02:10;21.40;99.90
17567;DHT22;8901;52.088;5.084;2022-08-11T01:05:21;21.30;99.90
17567;DHT22;8901;52.088;5.084;2022-08-11T01:08:21;21.30;99.90
17567;DHT22;8901;52.088;5.084;2022-08-11T01:11:04;21.20;99.90
17567;DHT22;8901;52.088;5.084;2022-08-11T01:14:23;21.30;99.90
17567;DHT22;8901;52.088;5.084;2022-08-11T01:20:12;21.30;99.90
17567;DHT22;8901;52.088;5.084;2022-08-11T01:23:02;21.20;99.90
17567;DHT22;8901;52.088;5.084;2022-08-11T01:26:08;21.20;99.90
17567;DHT22;8901;52.088;5.084;2022-08-11T01:28:59;21.20;99.90
17567;DHT22;8901;52.088;5.084;2022-08-11T01:38:06;21.10;99.90
17567;DHT22;8901;52.088;5.084;2022-08-11T01:40:54;21.00;99.90
17567;DHT22;8901;52.088;5.084;2022-08-11T01:46:51;21.00;99.90
17567;DHT22;8901;52.088;5.084;2022-08-11T01:49:24;20.80;99.90
17567;DHT22;8901;52.088;5.084;2022-08-11T01:52:14;20.80;99.90
17567;DHT22;8901;52.088;5.084;2022-08-11T01:57:37;20.80;99.90
17567;DHT22;8901;52.088;5.084;2022-08-11T02:00:11;20.80;99.90
17567;DHT22;8901;52.088;5.084;2022-08-11T02:02:44;20.60;99.90
17567;DHT22;8901;52.088;5.084;2022-08-11T02:05:25;20.60;99.90
17567;DHT22;8901;52.088;5.084;2022-08-11T02:07:59;20.60;99.90
17567;DHT22;8901;52.088;5.084;2022-08-11T02:10:37;20.60;99.90
17567;DHT22;8901;52.088;5.084;2022-08-11T02:13:34;20.60;99.90
17567;DHT22;8901;52.088;5.084;2022-08-11T02:16:12;20.50;99.90
17567;DHT22;8901;52.088;5.084;2022-08-11T02:18:45;20.60;99.90
17567;DHT22;8901;52.088;5.084;2022-08-11T02:21:48;20.60;99.90
17567;DHT22;8901;52.088;5.084;2022-08-11T02:24:36;20.40;99.90
17567;DHT22;8901;52.088;5.084;2022-08-11T02:27:15;20.50;99.90
17567;DHT22;8901;52.088;5.084;2022-08-11T02:29:53;20.50;99.90
17567;DHT22;8901;52.088;5.084;2022-08-11T02:32:28;20.60;99.90
17567;DHT22;8901;52.088;5.084;2022-08-11T02:35:21;20.60;99.90
17567;DHT22;8901;52.088;5.084;2022-08-11T02:37:54;20.50;99.90
17567;DHT22;8901;52.088;5.084;2022-08-11T02:40:33;20.40;99.90
17567;DHT22;8901;52.088;5.084;2022-08-11T02:43:21;20.30;99.90
17567;DHT22;8901;52.088;5.084;2022-08-11T02:45:55;20.30;99.90
17567;DHT22;8901;52.088;5.084;2022-08-11T02:48:38;20.40;99.90
17567;DHT22;8901;52.088;5.084;2022-08-11T02:51:29;20.30;99.90
17567;DHT22;8901;52.088;5.084;2022-08-11T02:57:24;20.30;99.90
17567;DHT22;8901;52.088;5.084;2022-08-11T03:00:03;20.40;99.90
17567;DHT22;8901;52.088;5.084;2022-08-11T03:02:43;20.50;99.90
17567;DHT22;8901;52.088;5.084;2022-08-11T03:05:25;20.40;99.90
17567;DHT22;8901;52.088;5.084;2022-08-11T03:08:07;20.50;99.90
17567;DHT22;8901;52.088;5.084;2022-08-11T03:10:46;20.40;99.90
17567;DHT22;8901;52.088;5.084;2022-08-11T03:13:40;20.20;99.90
17567;DHT22;8901;52.088;5.084;2022-08-11T03:16:31;20.30;99.90
17567;DHT22;8901;52.088;5.084;2022-08-11T03:19:18;20.30;99.90
17567;DHT22;8901;52.088;5.084;2022-08-11T03:21:55;20.20;99.90
17567;DHT22;8901;52.088;5.084;2022-08-11T03:24:30;20.20;99.90
17567;DHT22;8901;52.088;5.084;2022-08-11T03:27:04;20.10;99.90
17567;DHT22;8901;52.088;5.084;2022-08-11T03:29:36;20.00;99.90
17567;DHT22;8901;52.088;5.084;2022-08-11T03:32:10;20.10;99.90
17567;DHT22;8901;52.088;5.084;2022-08-11T03:34:45;20.00;99.90
17567;DHT22;8901;52.088;5.084;2022-08-11T03:37:36;20.20;99.90
17567;DHT22;8901;52.088;5.084;2022-08-11T03:40:32;20.10;99.90
17567;DHT22;8901;52.088;5.084;2022-08-11T03:43:30;20.20;99.90
17567;DHT22;8901;52.088;5.084;2022-08-11T03:46:05;20.20;99.90
17567;DHT22;8901;52.088;5.084;2022-08-11T03:48:42;20.20;99.90
17567;DHT22;8901;52.088;5.084;2022-08-11T03:51:18;20.10;99.90
17567;DHT22;8901;52.088;5.084;2022-08-11T03:54:09;20.20;99.90
17567;DHT22;8901;52.088;5.084;2022-08-11T03:57:13;20.20;99.90
17567;DHT22;8901;52.088;5.084;2022-08-11T04:00:28;20.20;99.90
17567;DHT22;8901;52.088;5.084;2022-08-11T04:03:22;20.20;99.90
17567;DHT22;8901;52.088;5.084;2022-08-11T04:06:16;20.10;99.90
17567;DHT22;8901;52.088;5.084;2022-08-11T04:09:41;20.00;99.90
17567;DHT22;8901;52.088;5.084;2022-08-11T04:12:24;20.00;99.90
17567;DHT22;8901;52.088;5.084;2022-08-11T04:22:01;19.80;99.90
17567;DHT22;8901;52.088;5.084;2022-08-11T04:24:53;19.80;99.90
17567;DHT22;8901;52.088;5.084;2022-08-11T04:27:49;19.70;99.90
17567;DHT22;8901;52.088;5.084;2022-08-11T04:30:26;19.80;99.90
17567;DHT22;8901;52.088;5.084;2022-08-11T04:39:38;19.70;99.90
17567;DHT22;8901;52.088;5.084;2022-08-11T04:42:34;19.80;99.90
17567;DHT22;8901;52.088;5.084;2022-08-11T04:45:37;19.70;99.90
17567;DHT22;8901;52.088;5.084;2022-08-11T04:48:22;19.70;99.90
17567;DHT22;8901;52.088;5.084;2022-08-11T04:51:34;19.70;99.90
17567;DHT22;8901;52.088;5.084;2022-08-11T04:54:31;19.70;99.90
17567;DHT22;8901;52.088;5.084;2022-08-11T04:57:34;19.70;99.90
17567;DHT22;8901;52.088;5.084;2022-08-11T05:00:25;19.60;99.90
17567;DHT22;8901;52.088;5.084;2022-08-11T05:03:45;19.60;99.90
17567;DHT22;8901;52.088;5.084;2022-08-11T05:06:53;19.50;99.90
17567;DHT22;8901;52.088;5.084;2022-08-11T05:09:32;19.50;99.90
17567;DHT22;8901;52.088;5.084;2022-08-11T05:12:30;19.50;99.90
17567;DHT22;8901;52.088;5.084;2022-08-11T05:15:00;19.60;99.90
17567;DHT22;8901;52.088;5.084;2022-08-11T05:17:51;19.60;99.90
17567;DHT22;8901;52.088;5.084;2022-08-11T05:20:45;19.50;99.90
17567;DHT22;8901;52.088;5.084;2022-08-11T05:23:32;19.60;99.90
17567;DHT22;8901;52.088;5.084;2022-08-11T05:26:19;19.60;99.90
17567;DHT22;8901;52.088;5.084;2022-08-11T05:29:24;19.60;99.90
17567;DHT22;8901;52.088;5.084;2022-08-11T05:32:12;19.60;99.90
17567;DHT22;8901;52.088;5.084;2022-08-11T05:35:02;19.60;99.90
17567;DHT22;8901;52.088;5.084;2022-08-11T05:37:40;19.60;99.90
17567;DHT22;8901;52.088;5.084;2022-08-11T05:40:28;19.70;99.90
17567;DHT22;8901;52.088;5.084;2022-08-11T05:43:15;19.70;99.90
17567;DHT22;8901;52.088;5.084;2022-08-11T05:46:01;19.70;99.90
17567;DHT22;8901;52.088;5.084;2022-08-11T05:48:46;19.70;99.90
17567;DHT22;8901;52.088;5.084;2022-08-11T05:51:34;19.70;99.90
17567;DHT22;8901;52.088;5.084;2022-08-11T05:54:19;19.80;99.90
17567;DHT22;8901;52.088;5.084;2022-08-11T05:57:04;19.80;99.90
17567;DHT22;8901;52.088;5.084;2022-08-11T05:59:33;20.30;99.90
17567;DHT22;8901;52.088;5.084;2022-08-11T06:02:02;20.60;99.90
17567;DHT22;8901;52.088;5.084;2022-08-11T06:04:31;20.30;99.90
17567;DHT22;8901;52.088;5.084;2022-08-11T06:07:01;20.40;99.90
17567;DHT22;8901;52.088;5.084;2022-08-11T06:09:32;20.30;99.90
17567;DHT22;8901;52.088;5.084;2022-08-11T06:12:02;20.20;99.90
17567;DHT22;8901;52.088;5.084;2022-08-11T06:14:40;20.60;99.90
17567;DHT22;8901;52.088;5.084;2022-08-11T06:17:08;20.80;99.90
17567;DHT22;8901;52.088;5.084;2022-08-11T06:19:37;20.80;99.90
17567;DHT22;8901;52.088;5.084;2022-08-11T06:22:07;20.90;99.90
17567;DHT22;8901;52.088;5.084;2022-08-11T06:24:36;21.10;99.90
17567;DHT22;8901;52.088;5.084;2022-08-11T06:27:04;21.30;99.90
17567;DHT22;8901;52.088;5.084;2022-08-11T06:29:35;21.50;99.90
17567;DHT22;8901;52.088;5.084;2022-08-11T06:32:07;21.40;99.90
17567;DHT22;8901;52.088;5.084;2022-08-11T06:35:01;21.60;99.90
17567;DHT22;8901;52.088;5.084;2022-08-11T06:37:38;21.60;99.90
17567;DHT22;8901;52.088;5.084;2022-08-11T06:40:10;21.70;99.90
17567;DHT22;8901;52.088;5.084;2022-08-11T06:42:54;21.90;99.90
17567;DHT22;8901;52.088;5.084;2022-08-11T06:45:31;21.80;99.90
17567;DHT22;8901;52.088;5.084;2022-08-11T06:48:00;22.00;99.90
17567;DHT22;8901;52.088;5.084;2022-08-11T06:50:28;22.00;99.90
17567;DHT22;8901;52.088;5.084;2022-08-11T06:53:16;22.20;99.90
17567;DHT22;8901;52.088;5.084;2022-08-11T06:55:45;22.20;99.90
17567;DHT22;8901;52.088;5.084;2022-08-11T06:58:32;22.40;99.90
17567;DHT22;8901;52.088;5.084;2022-08-11T07:01:28;22.50;99.90
17567;DHT22;8901;52.088;5.084;2022-08-11T07:04:04;22.50;99.90
17567;DHT22;8901;52.088;5.084;2022-08-11T07:06:43;22.60;99.90
17567;DHT22;8901;52.088;5.084;2022-08-11T07:09:53;22.60;99.90
17567;DHT22;8901;52.088;5.084;2022-08-11T07:12:45;22.60;99.90
17567;DHT22;8901;52.088;5.084;2022-08-11T07:15:32;22.80;99.90
17567;DHT22;8901;52.088;5.084;2022-08-11T07:18:19;22.70;99.90
17567;DHT22;8901;52.088;5.084;2022-08-11T07:21:14;22.70;99.90
17567;DHT22;8901;52.088;5.084;2022-08-11T07:24:01;22.90;99.90
17567;DHT22;8901;52.088;5.084;2022-08-11T07:26:50;22.90;99.90
17567;DHT22;8901;52.088;5.084;2022-08-11T07:29:37;22.90;99.90
17567;DHT22;8901;52.088;5.084;2022-08-11T07:32:14;23.00;99.90
17567;DHT22;8901;52.088;5.084;2022-08-11T07:34:50;23.10;99.90
17567;DHT22;8901;52.088;5.084;2022-08-11T07:37:19;23.30;99.90
17567;DHT22;8901;52.088;5.084;2022-08-11T07:39:48;23.30;99.90
17567;DHT22;8901;52.088;5.084;2022-08-11T07:42:19;23.30;99.90
17567;DHT22;8901;52.088;5.084;2022-08-11T07:44:47;23.40;99.90
17567;DHT22;8901;52.088;5.084;2022-08-11T07:47:34;23.40;99.90
17567;DHT22;8901;52.088;5.084;2022-08-11T07:50:23;23.40;99.90
17567;DHT22;8901;52.088;5.084;2022-08-11T07:53:09;23.40;99.90
17567;DHT22;8901;52.088;5.084;2022-08-11T07:55:36;23.50;99.90
17567;DHT22;8901;52.088;5.084;2022-08-11T07:58:03;23.60;99.90
17567;DHT22;8901;52.088;5.084;2022-08-11T08:00:51;23.60;99.90
17567;DHT22;8901;52.088;5.084;2022-08-11T08:03:37;23.70;99.90
17567;DHT22;8901;52.088;5.084;2022-08-11T08:06:23;23.70;99.90
17567;DHT22;8901;52.088;5.084;2022-08-11T08:09:09;23.80;99.90
17567;DHT22;8901;52.088;5.084;2022-08-11T08:11:55;23.80;99.90
17567;DHT22;8901;52.088;5.084;2022-08-11T08:14:40;23.90;99.90
17567;DHT22;8901;52.088;5.084;2022-08-11T08:17:25;23.90;99.90
17567;DHT22;8901;52.088;5.084;2022-08-11T08:20:12;24.10;99.90
17567;DHT22;8901;52.088;5.084;2022-08-11T08:22:42;24.10;99.90
17567;DHT22;8901;52.088;5.084;2022-08-11T08:25:09;24.10;99.90
17567;DHT22;8901;52.088;5.084;2022-08-11T08:27:37;24.20;99.90
17567;DHT22;8901;52.088;5.084;2022-08-11T08:30:08;24.20;99.90
17567;DHT22;8901;52.088;5.084;2022-08-11T08:32:53;24.30;99.90
17567;DHT22;8901;52.088;5.084;2022-08-11T08:35:23;24.40;99.90
17567;DHT22;8901;52.088;5.084;2022-08-11T08:37:51;24.40;99.90
17567;DHT22;8901;52.088;5.084;2022-08-11T08:40:18;24.60;99.90
17567;DHT22;8901;52.088;5.084;2022-08-11T08:42:48;24.70;99.90
17567;DHT22;8901;52.088;5.084;2022-08-11T08:45:18;24.80;99.90
17567;DHT22;8901;52.088;5.084;2022-08-11T08:47:50;25.00;99.90
17567;DHT22;8901;52.088;5.084;2022-08-11T08:50:20;25.10;99.90
17567;DHT22;8901;52.088;5.084;2022-08-11T08:52:53;25.30;99.90
17567;DHT22;8901;52.088;5.084;2022-08-11T08:55:21;25.40;99.90
17567;DHT22;8901;52.088;5.084;2022-08-11T08:57:51;25.50;99.90
17567;DHT22;8901;52.088;5.084;2022-08-11T09:00:20;25.70;99.90
17567;DHT22;8901;52.088;5.084;2022-08-11T09:02:48;25.60;99.90
17567;DHT22;8901;52.088;5.084;2022-08-11T09:05:17;25.60;99.90
17567;DHT22;8901;52.088;5.084;2022-08-11T09:07:49;26.10;99.90
17567;DHT22;8901;52.088;5.084;2022-08-11T09:10:24;26.20;99.90
17567;DHT22;8901;52.088;5.084;2022-08-11T09:12:52;25.90;99.90
17567;DHT22;8901;52.088;5.084;2022-08-11T09:15:19;25.70;99.90
17567;DHT22;8901;52.088;5.084;2022-08-11T09:17:50;26.10;99.90
17567;DHT22;8901;52.088;5.084;2022-08-11T09:20:21;26.20;99.90
17567;DHT22;8901;52.088;5.084;2022-08-11T09:22:50;26.40;99.90
17567;DHT22;8901;52.088;5.084;2022-08-11T09:25:37;26.10;99.90
17567;DHT22;8901;52.088;5.084;2022-08-11T09:28:21;26.40;99.90
17567;DHT22;8901;52.088;5.084;2022-08-11T09:30:51;26.20;99.90
17567;DHT22;8901;52.088;5.084;2022-08-11T09:33:21;26.00;99.90
17567;DHT22;8901;52.088;5.084;2022-08-11T09:35:50;26.00;99.90
17567;DHT22;8901;52.088;5.084;2022-08-11T09:38:19;26.30;99.90
17567;DHT22;8901;52.088;5.084;2022-08-11T09:41:08;26.30;99.90
17567;DHT22;8901;52.088;5.084;2022-08-11T09:43:38;26.60;99.90
17567;DHT22;8901;52.088;5.084;2022-08-11T09:46:26;27.00;99.90
17567;DHT22;8901;52.088;5.084;2022-08-11T09:48:59;26.60;99.90
17567;DHT22;8901;52.088;5.084;2022-08-11T09:51:31;27.20;99.90
17567;DHT22;8901;52.088;5.084;2022-08-11T09:53:59;27.00;99.90
17567;DHT22;8901;52.088;5.084;2022-08-11T09:56:34;27.00;99.90
17567;DHT22;8901;52.088;5.084;2022-08-11T09:59:21;27.10;99.90
17567;DHT22;8901;52.088;5.084;2022-08-11T10:01:51;27.50;99.90
17567;DHT22;8901;52.088;5.084;2022-08-11T10:04:24;27.30;99.90
17567;DHT22;8901;52.088;5.084;2022-08-11T10:06:56;27.60;99.90
17567;DHT22;8901;52.088;5.084;2022-08-11T10:09:38;27.70;99.90
17567;DHT22;8901;52.088;5.084;2022-08-11T10:12:10;27.60;99.90
17567;DHT22;8901;52.088;5.084;2022-08-11T10:14:42;27.20;99.90
17567;DHT22;8901;52.088;5.084;2022-08-11T10:17:32;27.00;99.90
17567;DHT22;8901;52.088;5.084;2022-08-11T10:20:00;27.00;99.90
17567;DHT22;8901;52.088;5.084;2022-08-11T10:22:29;27.30;99.90
17567;DHT22;8901;52.088;5.084;2022-08-11T10:25:14;27.30;99.90
17567;DHT22;8901;52.088;5.084;2022-08-11T10:28:02;27.50;99.90
17567;DHT22;8901;52.088;5.084;2022-08-11T10:30:30;27.70;99.90
17567;DHT22;8901;52.088;5.084;2022-08-11T10:33:16;27.80;99.90
17567;DHT22;8901;52.088;5.084;2022-08-11T10:36:02;27.50;99.90
17567;DHT22;8901;52.088;5.084;2022-08-11T10:38:31;27.80;99.90
17567;DHT22;8901;52.088;5.084;2022-08-11T10:40:58;27.70;99.90
17567;DHT22;8901;52.088;5.084;2022-08-11T10:43:45;27.30;99.90
17567;DHT22;8901;52.088;5.084;2022-08-11T10:46:12;27.50;99.90
17567;DHT22;8901;52.088;5.084;2022-08-11T10:48:58;27.80;99.90
17567;DHT22;8901;52.088;5.084;2022-08-11T10:51:26;27.60;99.90
17567;DHT22;8901;52.088;5.084;2022-08-11T10:54:11;27.50;99.90
17567;DHT22;8901;52.088;5.084;2022-08-11T10:56:59;27.30;99.90
17567;DHT22;8901;52.088;5.084;2022-08-11T10:59:46;27.90;99.90
17567;DHT22;8901;52.088;5.084;2022-08-11T11:02:14;27.50;99.90
17567;DHT22;8901;52.088;5.084;2022-08-11T11:04:56;27.30;99.90
17567;DHT22;8901;52.088;5.084;2022-08-11T11:07:36;27.20;99.90
17567;DHT22;8901;52.088;5.084;2022-08-11T11:10:05;27.70;99.90
17567;DHT22;8901;52.088;5.084;2022-08-11T11:12:38;27.40;99.90
17567;DHT22;8901;52.088;5.084;2022-08-11T11:15:26;27.60;99.90
17567;DHT22;8901;52.088;5.084;2022-08-11T11:18:16;27.80;99.90
17567;DHT22;8901;52.088;5.084;2022-08-11T11:20:47;27.40;99.90
17567;DHT22;8901;52.088;5.084;2022-08-11T11:23:18;27.40;99.90
17567;DHT22;8901;52.088;5.084;2022-08-11T11:26:07;27.50;99.90
17567;DHT22;8901;52.088;5.084;2022-08-11T11:31:53;28.20;99.90
17567;DHT22;8901;52.088;5.084;2022-08-11T11:34:41;28.00;99.90
17567;DHT22;8901;52.088;5.084;2022-08-11T11:37:11;28.00;99.90
17567;DHT22;8901;52.088;5.084;2022-08-11T11:39:42;28.00;99.90
17567;DHT22;8901;52.088;5.084;2022-08-11T11:42:10;28.50;99.90
17567;DHT22;8901;52.088;5.084;2022-08-11T11:44:38;28.60;99.90
17567;DHT22;8901;52.088;5.084;2022-08-11T11:47:10;28.30;99.90
17567;DHT22;8901;52.088;5.084;2022-08-11T11:49:40;28.10;99.90
17567;DHT22;8901;52.088;5.084;2022-08-11T11:52:13;28.20;99.90
17567;DHT22;8901;52.088;5.084;2022-08-11T11:54:42;28.90;99.90
17567;DHT22;8901;52.088;5.084;2022-08-11T11:57:09;28.90;99.90
17567;DHT22;8901;52.088;5.084;2022-08-11T11:59:55;29.10;99.90
17567;DHT22;8901;52.088;5.084;2022-08-11T12:02:41;29.10;99.90
17567;DHT22;8901;52.088;5.084;2022-08-11T12:05:09;28.60;99.90
17567;DHT22;8901;52.088;5.084;2022-08-11T12:07:37;28.60;99.90
17567;DHT22;8901;52.088;5.084;2022-08-11T12:10:22;28.90;99.90
17567;DHT22;8901;52.088;5.084;2022-08-11T12:12:49;29.10;99.90
17567;DHT22;8901;52.088;5.084;2022-08-11T12:15:34;29.60;99.90
17567;DHT22;8901;52.088;5.084;2022-08-11T12:18:04;29.70;99.90
17567;DHT22;8901;52.088;5.084;2022-08-11T12:20:31;29.40;99.90
17567;DHT22;8901;52.088;5.084;2022-08-11T12:22:59;29.40;99.90
17567;DHT22;8901;52.088;5.084;2022-08-11T12:25:44;29.40;99.90
17567;DHT22;8901;52.088;5.084;2022-08-11T12:28:29;29.00;99.90
17567;DHT22;8901;52.088;5.084;2022-08-11T12:30:56;29.10;99.90
17567;DHT22;8901;52.088;5.084;2022-08-11T12:33:25;29.20;99.90
17567;DHT22;8901;52.088;5.084;2022-08-11T12:35:55;29.40;99.90
17567;DHT22;8901;52.088;5.084;2022-08-11T12:38:24;29.10;99.90
17567;DHT22;8901;52.088;5.084;2022-08-11T12:40:52;28.90;99.90
17567;DHT22;8901;52.088;5.084;2022-08-11T12:43:41;28.70;99.90
17567;DHT22;8901;52.088;5.084;2022-08-11T12:46:30;28.60;99.90
17567;DHT22;8901;52.088;5.084;2022-08-11T12:49:06;28.90;99.90
17567;DHT22;8901;52.088;5.084;2022-08-11T12:51:54;28.80;99.90
17567;DHT22;8901;52.088;5.084;2022-08-11T12:54:27;28.80;99.90
17567;DHT22;8901;52.088;5.084;2022-08-11T12:56:59;28.60;99.90
17567;DHT22;8901;52.088;5.084;2022-08-11T12:59:44;28.90;99.90
17567;DHT22;8901;52.088;5.084;2022-08-11T13:02:29;28.70;99.90
17567;DHT22;8901;52.088;5.084;2022-08-11T13:05:16;28.80;99.90
17567;DHT22;8901;52.088;5.084;2022-08-11T13:07:44;28.90;99.90
17567;DHT22;8901;52.088;5.084;2022-08-11T13:10:13;29.00;99.90
17567;DHT22;8901;52.088;5.084;2022-08-11T13:13:00;29.10;99.90
17567;DHT22;8901;52.088;5.084;2022-08-11T13:15:26;29.90;99.80
17567;DHT22;8901;52.088;5.084;2022-08-11T13:17:54;29.60;99.90
17567;DHT22;8901;52.088;5.084;2022-08-11T13:20:23;29.20;99.90
17567;DHT22;8901;52.088;5.084;2022-08-11T13:22:53;29.00;99.90
17567;DHT22;8901;52.088;5.084;2022-08-11T13:25:22;29.20;99.90
17567;DHT22;8901;52.088;5.084;2022-08-11T13:27:54;29.40;99.90
17567;DHT22;8901;52.088;5.084;2022-08-11T13:30:24;29.10;99.90
17567;DHT22;8901;52.088;5.084;2022-08-11T13:33:10;29.20;99.90
17567;DHT22;8901;52.088;5.084;2022-08-11T13:35:40;29.70;99.90
17567;DHT22;8901;52.088;5.084;2022-08-11T13:38:08;29.80;99.90
17567;DHT22;8901;52.088;5.084;2022-08-11T13:40:36;29.60;99.90
17567;DHT22;8901;52.088;5.084;2022-08-11T13:43:03;29.60;99.90
17567;DHT22;8901;52.088;5.084;2022-08-11T13:45:31;29.50;99.90
17567;DHT22;8901;52.088;5.084;2022-08-11T13:47:59;29.80;99.90
17567;DHT22;8901;52.088;5.084;2022-08-11T13:50:26;29.60;99.90
17567;DHT22;8901;52.088;5.084;2022-08-11T13:53:10;30.00;99.90
17567;DHT22;8901;52.088;5.084;2022-08-11T13:55:38;29.50;99.90
17567;DHT22;8901;52.088;5.084;2022-08-11T13:58:09;29.50;99.90
17567;DHT22;8901;52.088;5.084;2022-08-11T14:00:36;29.60;99.90
17567;DHT22;8901;52.088;5.084;2022-08-11T14:03:05;29.50;99.90
17567;DHT22;8901;52.088;5.084;2022-08-11T14:05:39;29.40;99.90
17567;DHT22;8901;52.088;5.084;2022-08-11T14:08:24;29.60;99.90
17567;DHT22;8901;52.088;5.084;2022-08-11T14:10:52;29.60;99.90
17567;DHT22;8901;52.088;5.084;2022-08-11T14:13:38;30.00;99.90
17567;DHT22;8901;52.088;5.084;2022-08-11T14:16:08;30.20;99.90
17567;DHT22;8901;52.088;5.084;2022-08-11T14:18:42;30.70;98.00
17567;DHT22;8901;52.088;5.084;2022-08-11T14:21:12;30.70;96.20
17567;DHT22;8901;52.088;5.084;2022-08-11T14:23:58;31.00;95.50
17567;DHT22;8901;52.088;5.084;2022-08-11T14:26:27;31.00;95.50
17567;DHT22;8901;52.088;5.084;2022-08-11T14:28:59;31.20;96.20
17567;DHT22;8901;52.088;5.084;2022-08-11T14:31:29;31.10;95.90
17567;DHT22;8901;52.088;5.084;2022-08-11T14:34:00;31.10;94.90
17567;DHT22;8901;52.088;5.084;2022-08-11T14:36:29;31.10;99.90
17567;DHT22;8901;52.088;5.084;2022-08-11T14:39:01;30.80;99.80
17567;DHT22;8901;52.088;5.084;2022-08-11T14:41:29;31.10;99.90
17567;DHT22;8901;52.088;5.084;2022-08-11T14:44:14;31.00;97.30
17567;DHT22;8901;52.088;5.084;2022-08-11T14:46:59;31.00;97.10
17567;DHT22;8901;52.088;5.084;2022-08-11T14:49:34;31.10;94.60
17567;DHT22;8901;52.088;5.084;2022-08-11T14:52:03;31.00;99.90
17567;DHT22;8901;52.088;5.084;2022-08-11T14:54:34;31.00;94.00
17567;DHT22;8901;52.088;5.084;2022-08-11T14:57:20;31.40;93.50
17567;DHT22;8901;52.088;5.084;2022-08-11T14:59:48;31.30;95.80
17567;DHT22;8901;52.088;5.084;2022-08-11T15:02:18;31.40;92.30
17567;DHT22;8901;52.088;5.084;2022-08-11T15:05:04;31.20;92.30
17567;DHT22;8901;52.088;5.084;2022-08-11T15:07:32;31.30;99.90
17567;DHT22;8901;52.088;5.084;2022-08-11T15:10:04;31.30;92.30
17567;DHT22;8901;52.088;5.084;2022-08-11T15:12:33;31.30;94.40
17567;DHT22;8901;52.088;5.084;2022-08-11T15:15:01;31.30;95.00
17567;DHT22;8901;52.088;5.084;2022-08-11T15:17:49;31.40;96.30
17567;DHT22;8901;52.088;5.084;2022-08-11T15:20:19;31.50;94.30
17567;DHT22;8901;52.088;5.084;2022-08-11T15:23:04;31.40;94.10
17567;DHT22;8901;52.088;5.084;2022-08-11T15:25:54;31.50;93.40
17567;DHT22;8901;52.088;5.084;2022-08-11T15:28:23;31.40;93.00
17567;DHT22;8901;52.088;5.084;2022-08-11T15:31:11;31.30;94.90
17567;DHT22;8901;52.088;5.084;2022-08-11T15:34:07;31.20;98.10
17567;DHT22;8901;52.088;5.084;2022-08-11T15:36:56;31.30;93.00
17567;DHT22;8901;52.088;5.084;2022-08-11T15:39:46;31.40;94.80
17567;DHT22;8901;52.088;5.084;2022-08-11T15:42:29;31.40;96.80
17567;DHT22;8901;52.088;5.084;2022-08-11T15:45:17;31.10;93.30
17567;DHT22;8901;52.088;5.084;2022-08-11T15:48:06;31.20;93.30
17567;DHT22;8901;52.088;5.084;2022-08-11T15:50:38;31.00;93.20
17567;DHT22;8901;52.088;5.084;2022-08-11T15:53:09;31.30;93.60
17567;DHT22;8901;52.088;5.084;2022-08-11T15:55:38;31.30;93.90
17567;DHT22;8901;52.088;5.084;2022-08-11T15:58:09;31.30;92.90
17567;DHT22;8901;52.088;5.084;2022-08-11T16:01:15;31.00;92.50
17567;DHT22;8901;52.088;5.084;2022-08-11T16:04:05;31.30;96.70
17567;DHT22;8901;52.088;5.084;2022-08-11T16:06:44;30.80;94.70
17567;DHT22;8901;52.088;5.084;2022-08-11T16:09:16;30.90;93.70
17567;DHT22;8901;52.088;5.084;2022-08-11T16:11:45;31.10;94.00
17567;DHT22;8901;52.088;5.084;2022-08-11T16:14:16;31.00;93.10
17567;DHT22;8901;52.088;5.084;2022-08-11T16:17:02;30.90;93.50
17567;DHT22;8901;52.088;5.084;2022-08-11T16:19:32;31.00;93.70
17567;DHT22;8901;52.088;5.084;2022-08-11T16:22:02;31.00;93.80
17567;DHT22;8901;52.088;5.084;2022-08-11T16:24:32;31.00;94.20
17567;DHT22;8901;52.088;5.084;2022-08-11T16:27:01;31.00;94.00
17567;DHT22;8901;52.088;5.084;2022-08-11T16:29:30;31.00;94.00
17567;DHT22;8901;52.088;5.084;2022-08-11T16:31:58;30.90;95.20
17567;DHT22;8901;52.088;5.084;2022-08-11T16:34:43;30.90;95.00
17567;DHT22;8901;52.088;5.084;2022-08-11T16:37:30;30.60;94.30
17567;DHT22;8901;52.088;5.084;2022-08-11T16:40:17;30.80;94.20
17567;DHT22;8901;52.088;5.084;2022-08-11T16:42:45;30.70;94.70
17567;DHT22;8901;52.088;5.084;2022-08-11T16:45:33;30.70;94.30
17567;DHT22;8901;52.088;5.084;2022-08-11T16:48:18;30.70;94.90
17567;DHT22;8901;52.088;5.084;2022-08-11T16:50:45;30.70;94.90
17567;DHT22;8901;52.088;5.084;2022-08-11T16:53:13;30.60;94.70
17567;DHT22;8901;52.088;5.084;2022-08-11T16:55:42;30.60;94.70
17567;DHT22;8901;52.088;5.084;2022-08-11T16:58:10;30.60;95.50
17567;DHT22;8901;52.088;5.084;2022-08-11T17:00:57;30.30;97.60
17567;DHT22;8901;52.088;5.084;2022-08-11T17:03:25;30.50;94.40
17567;DHT22;8901;52.088;5.084;2022-08-11T17:06:19;30.50;94.70
17567;DHT22;8901;52.088;5.084;2022-08-11T17:09:05;30.40;94.40
17567;DHT22;8901;52.088;5.084;2022-08-11T17:11:55;30.40;96.80
17567;DHT22;8901;52.088;5.084;2022-08-11T17:14:44;30.30;96.50
17567;DHT22;8901;52.088;5.084;2022-08-11T17:17:14;30.30;95.10
17567;DHT22;8901;52.088;5.084;2022-08-11T17:19:47;30.10;95.40
17567;DHT22;8901;52.088;5.084;2022-08-11T17:22:15;30.20;95.30
17567;DHT22;8901;52.088;5.084;2022-08-11T17:25:02;30.20;95.30
17567;DHT22;8901;52.088;5.084;2022-08-11T17:27:31;30.10;96.70
17567;DHT22;8901;52.088;5.084;2022-08-11T17:30:03;30.10;95.70
17567;DHT22;8901;52.088;5.084;2022-08-11T17:32:35;30.20;95.60